Time;durP1;ratioP1;P1;durP2;ratioP2;P2;SDS_P1;SDS_P2;PMS_P1;PMS_P2;Temp;Humidity;BMP_temperature;BMP_pressure;BME280_temperature;BME280_humidity;BME280_pressure;Samples;Min_cycle;Max_cycle;Signal;HPM_P1;HPM_P2
2022/10/14 00:01:19;;;;;;;24.97;13.47;;;8.60;99.90;;;;;;4987985;28;20475;-47
2022/10/14 00:03:46;;;;;;;21.33;14.20;;;8.60;99.90;;;;;;4986139;28;20484;-47
2022/10/14 00:06:17;;;;;;;15.67;12.57;;;8.60;99.90;;;;;;4988884;28;20464;-47
2022/10/14 00:08:46;;;;;;;22.50;12.73;;;8.60;99.90;;;;;;4989682;28;20838;-47
2022/10/14 00:11:15;;;;;;;25.03;12.70;;;8.50;99.90;;;;;;4987795;28;20547;-46
2022/10/14 00:13:41;;;;;;;19.47;12.80;;;8.50;99.90;;;;;;4990840;28;20484;-46
2022/10/14 00:16:16;;;;;;;16.73;12.67;;;8.40;99.90;;;;;;4987937;28;20566;-48
2022/10/14 00:18:42;;;;;;;18.23;13.40;;;8.40;99.90;;;;;;4988466;28;20558;-47
2022/10/14 00:21:09;;;;;;;19.67;12.43;;;8.30;99.90;;;;;;4991576;28;20538;-46
2022/10/14 00:23:37;;;;;;;16.57;12.00;;;8.20;99.90;;;;;;4990158;28;20557;-48
2022/10/14 00:26:04;;;;;;;15.07;12.03;;;8.20;99.90;;;;;;4987771;28;20973;-46
2022/10/14 00:28:31;;;;;;;22.23;13.40;;;8.10;99.90;;;;;;4984636;28;20460;-46
2022/10/14 00:30:59;;;;;;;28.60;11.83;;;8.10;99.90;;;;;;4991557;28;20464;-47
2022/10/14 00:33:27;;;;;;;21.00;13.23;;;8.10;99.90;;;;;;4983065;28;20480;-46
2022/10/14 00:35:55;;;;;;;19.60;13.77;;;8.10;99.90;;;;;;4989679;28;20574;-46
2022/10/14 00:38:22;;;;;;;16.00;12.50;;;8.10;99.90;;;;;;4990738;28;20456;-46
2022/10/14 00:40:50;;;;;;;20.57;12.67;;;8.00;99.90;;;;;;4991078;28;20469;-46
2022/10/14 00:43:16;;;;;;;13.70;12.13;;;8.00;99.90;;;;;;4990964;28;20489;-47
2022/10/14 00:45:43;;;;;;;17.07;12.50;;;7.90;99.90;;;;;;4987562;28;20472;-47
2022/10/14 00:48:11;;;;;;;16.43;11.50;;;7.90;99.90;;;;;;4989861;28;20460;-47
2022/10/14 00:50:39;;;;;;;15.53;11.47;;;7.80;99.90;;;;;;4990527;28;20491;-48
2022/10/14 00:53:05;;;;;;;14.50;11.97;;;7.80;99.90;;;;;;4984105;28;20539;-48
2022/10/14 00:55:32;;;;;;;14.80;12.13;;;7.70;99.90;;;;;;4993817;28;20519;-47
2022/10/14 00:58:00;;;;;;;18.60;12.37;;;7.70;99.90;;;;;;4991259;28;20547;-47
2022/10/14 01:00:27;;;;;;;18.70;12.90;;;7.70;99.90;;;;;;4989590;28;20547;-47
2022/10/14 01:02:55;;;;;;;23.70;14.10;;;7.70;99.90;;;;;;4986324;28;20540;-46
2022/10/14 01:05:23;;;;;;;17.53;12.03;;;7.60;99.90;;;;;;4989903;28;20452;-46
2022/10/14 01:08:02;;;;;;;18.17;11.70;;;7.70;99.90;;;;;;4992345;28;20870;-47
2022/10/14 01:10:35;;;;;;;21.30;13.97;;;7.60;99.90;;;;;;4992847;28;20543;-46
2022/10/14 01:13:13;;;;;;;17.53;13.60;;;7.60;99.90;;;;;;4985234;28;21020;-46
2022/10/14 01:15:45;;;;;;;15.90;13.70;;;7.50;99.90;;;;;;4984772;28;20465;-47
2022/10/14 01:18:20;;;;;;;16.00;12.40;;;7.50;99.90;;;;;;4990762;28;20982;-47
2022/10/14 01:21:09;;;;;;;18.97;13.07;;;7.50;99.90;;;;;;4986958;28;20872;-48
2022/10/14 01:24:07;;;;;;;14.97;12.63;;;7.40;99.90;;;;;;4980368;28;20519;-47
2022/10/14 01:27:12;;;;;;;18.67;13.83;;;7.40;99.90;;;;;;4988879;28;20485;-46
2022/10/14 01:29:59;;;;;;;19.37;13.67;;;7.40;99.90;;;;;;4966049;28;20456;-46
2022/10/14 01:32:29;;;;;;;22.07;14.87;;;7.40;99.90;;;;;;4989044;28;20881;-46
2022/10/14 01:35:01;;;;;;;23.80;13.23;;;7.40;99.90;;;;;;4988071;28;20624;-45
2022/10/14 01:37:30;;;;;;;16.67;12.73;;;7.30;99.90;;;;;;4988804;28;20492;-47
2022/10/14 01:40:02;;;;;;;19.83;11.80;;;7.40;99.90;;;;;;4986938;28;20531;-48
2022/10/14 01:42:33;;;;;;;17.83;13.37;;;7.30;99.90;;;;;;4984177;28;20460;-47
2022/10/14 01:45:08;;;;;;;31.03;12.60;;;7.30;99.90;;;;;;4984960;28;20492;-47
2022/10/14 01:47:36;;;;;;;15.60;13.00;;;7.20;99.90;;;;;;4990550;28;20820;-47
2022/10/14 01:50:07;;;;;;;17.43;13.13;;;7.30;99.90;;;;;;4987838;28;20464;-47
2022/10/14 01:52:38;;;;;;;18.03;12.77;;;7.20;99.90;;;;;;4989661;28;20468;-47
2022/10/14 01:55:11;;;;;;;15.53;12.63;;;7.20;99.90;;;;;;4982652;28;20556;-46
2022/10/14 01:57:40;;;;;;;22.53;11.93;;;7.20;99.90;;;;;;4989025;28;20531;-47
2022/10/14 02:00:10;;;;;;;19.47;12.97;;;7.10;99.90;;;;;;4988095;28;20464;-47
2022/10/14 02:02:38;;;;;;;17.03;11.90;;;7.10;99.90;;;;;;4984418;28;21236;-46
2022/10/14 02:05:09;;;;;;;22.60;11.90;;;7.20;99.90;;;;;;4986551;28;20558;-46
2022/10/14 02:07:42;;;;;;;16.03;12.63;;;7.10;99.90;;;;;;4991112;28;20457;-47
2022/10/14 02:10:18;;;;;;;23.50;11.53;;;7.10;99.90;;;;;;4988199;28;20527;-47
2022/10/14 02:12:57;;;;;;;32.13;14.10;;;7.10;99.90;;;;;;4989777;28;20568;-46
2022/10/14 02:15:32;;;;;;;26.63;13.53;;;7.10;99.90;;;;;;4987091;28;20518;-46
2022/10/14 02:18:06;;;;;;;17.57;13.30;;;7.00;99.90;;;;;;4995433;28;20564;-47
2022/10/14 02:20:37;;;;;;;14.93;11.70;;;7.00;99.90;;;;;;4988817;28;20530;-47
2022/10/14 02:23:08;;;;;;;16.60;12.80;;;6.90;99.90;;;;;;4989503;28;20488;-47
2022/10/14 02:25:38;;;;;;;16.53;13.60;;;6.80;99.90;;;;;;4987601;28;20456;-47
2022/10/14 02:28:07;;;;;;;16.90;12.80;;;6.80;99.90;;;;;;4988148;28;20542;-46
2022/10/14 02:30:40;;;;;;;23.90;13.87;;;6.70;99.90;;;;;;4988183;28;20465;-46
2022/10/14 02:33:08;;;;;;;18.63;12.60;;;6.70;99.90;;;;;;4987717;28;20484;-47
2022/10/14 02:35:36;;;;;;;24.93;12.90;;;6.70;99.90;;;;;;4987779;28;20558;-46
2022/10/14 02:38:04;;;;;;;17.37;12.37;;;6.70;99.90;;;;;;4987689;28;20507;-47
2022/10/14 02:40:36;;;;;;;18.40;13.63;;;6.70;99.90;;;;;;4987198;28;20460;-47
2022/10/14 02:43:02;;;;;;;17.80;11.83;;;6.60;99.90;;;;;;4988577;28;20574;-47
2022/10/14 02:45:29;;;;;;;17.83;12.90;;;6.50;99.90;;;;;;4989763;28;20471;-47
2022/10/14 02:47:57;;;;;;;15.73;11.00;;;6.50;99.90;;;;;;4990096;28;20527;-47
2022/10/14 02:50:24;;;;;;;22.30;12.30;;;6.60;99.90;;;;;;4987593;28;20473;-47
2022/10/14 02:52:50;;;;;;;17.40;12.83;;;6.60;99.90;;;;;;4986868;28;20512;-46
2022/10/14 02:55:17;;;;;;;16.53;12.27;;;6.50;99.90;;;;;;4983576;28;20616;-47
2022/10/14 02:57:43;;;;;;;17.03;13.00;;;6.50;99.90;;;;;;4988118;28;20520;-48
2022/10/14 03:00:11;;;;;;;19.20;13.47;;;6.50;99.90;;;;;;4986877;28;21048;-47
2022/10/14 03:02:38;;;;;;;16.63;13.17;;;6.50;99.90;;;;;;4986363;28;20460;-46
2022/10/14 03:05:06;;;;;;;22.33;13.40;;;6.50;99.90;;;;;;4987019;28;20505;-46
2022/10/14 03:07:33;;;;;;;16.67;12.70;;;6.50;99.90;;;;;;4987407;28;20457;-47
2022/10/14 03:09:59;;;;;;;16.60;12.77;;;6.50;99.90;;;;;;4987467;28;20473;-47
2022/10/14 03:12:26;;;;;;;15.43;12.60;;;6.50;99.90;;;;;;4986013;28;20877;-46
2022/10/14 03:14:52;;;;;;;17.93;12.93;;;6.50;99.90;;;;;;4987547;28;20461;-46
2022/10/14 03:17:19;;;;;;;16.33;12.17;;;6.50;99.90;;;;;;4984738;28;20566;-46
2022/10/14 03:19:46;;;;;;;16.53;11.40;;;6.50;99.90;;;;;;4989340;28;20819;-47
2022/10/14 03:22:14;;;;;;;18.90;11.90;;;6.50;99.90;;;;;;4989508;28;20593;-47
2022/10/14 03:24:40;;;;;;;21.00;12.90;;;6.50;99.90;;;;;;4988053;28;20489;-48
2022/10/14 03:27:07;;;;;;;19.07;11.93;;;6.50;99.90;;;;;;4985671;28;20464;-49
2022/10/14 03:29:33;;;;;;;15.60;11.80;;;6.50;99.90;;;;;;4987404;28;20469;-49
2022/10/14 03:32:00;;;;;;;20.00;12.67;;;6.50;99.90;;;;;;4987350;28;20888;-48
2022/10/14 03:34:26;;;;;;;14.77;12.10;;;6.50;99.90;;;;;;4988020;28;20484;-48
2022/10/14 03:36:53;;;;;;;18.47;12.77;;;6.50;99.90;;;;;;4990685;28;20563;-49
2022/10/14 03:39:21;;;;;;;19.47;13.70;;;6.40;99.90;;;;;;4985088;28;20552;-49
2022/10/14 03:41:47;;;;;;;19.77;13.83;;;6.40;99.90;;;;;;4984892;28;20515;-48
2022/10/14 03:44:14;;;;;;;14.83;12.87;;;6.40;99.90;;;;;;4992495;28;20861;-49
2022/10/14 03:46:41;;;;;;;17.37;13.77;;;6.40;99.90;;;;;;4992682;28;20457;-48
2022/10/14 03:49:07;;;;;;;18.40;14.00;;;6.40;99.90;;;;;;4991275;28;20516;-48
2022/10/14 03:51:34;;;;;;;21.13;12.90;;;6.50;99.90;;;;;;4992472;28;20542;-49
2022/10/14 03:54:00;;;;;;;18.27;12.97;;;6.50;99.90;;;;;;4988836;28;20480;-48
2022/10/14 03:56:28;;;;;;;17.63;12.87;;;6.40;99.90;;;;;;4990403;28;20488;-48
2022/10/14 03:58:55;;;;;;;16.13;12.70;;;6.40;99.90;;;;;;4989944;28;20516;-48
2022/10/14 04:01:22;;;;;;;13.83;12.23;;;6.30;99.90;;;;;;4988051;28;20491;-48
2022/10/14 04:03:49;;;;;;;17.50;12.50;;;6.40;99.90;;;;;;4989928;28;20485;-49
2022/10/14 04:06:16;;;;;;;20.73;12.70;;;6.30;99.90;;;;;;4991691;28;20469;-48
2022/10/14 04:08:43;;;;;;;21.17;13.43;;;6.30;99.90;;;;;;4990505;28;20520;-49
2022/10/14 04:11:10;;;;;;;18.27;13.27;;;6.30;99.90;;;;;;4989412;28;20461;-48
2022/10/14 04:13:38;;;;;;;18.73;13.37;;;6.30;99.90;;;;;;4992346;28;20543;-49
2022/10/14 04:16:05;;;;;;;21.90;12.03;;;6.30;99.90;;;;;;4989100;28;20468;-49
2022/10/14 04:18:32;;;;;;;15.70;13.33;;;6.20;99.90;;;;;;4993198;28;20484;-49
2022/10/14 04:21:00;;;;;;;18.57;12.93;;;6.20;99.90;;;;;;4992839;28;20460;-49
2022/10/14 04:23:27;;;;;;;12.97;11.23;;;6.30;99.90;;;;;;4987515;28;21005;-48
2022/10/14 04:25:53;;;;;;;22.87;12.10;;;6.20;99.90;;;;;;4992623;28;20507;-48
2022/10/14 04:28:20;;;;;;;16.57;13.00;;;6.20;99.90;;;;;;4994270;28;20550;-48
2022/10/14 04:30:48;;;;;;;17.70;14.43;;;6.20;99.90;;;;;;4989658;28;20506;-48
2022/10/14 04:33:16;;;;;;;21.20;16.37;;;6.30;99.90;;;;;;4989788;28;20480;-48
2022/10/14 04:35:43;;;;;;;27.00;18.10;;;6.40;99.90;;;;;;4984305;28;20836;-45
2022/10/14 04:38:10;;;;;;;28.77;17.60;;;6.40;99.90;;;;;;4985600;28;20505;-47
2022/10/14 04:40:36;;;;;;;23.53;18.30;;;6.30;99.90;;;;;;4989387;28;20472;-47
2022/10/14 04:43:03;;;;;;;22.00;16.20;;;6.30;99.90;;;;;;4988054;28;20548;-47
2022/10/14 04:45:29;;;;;;;21.27;16.17;;;6.40;99.90;;;;;;4985598;28;20892;-47
2022/10/14 04:47:57;;;;;;;23.80;16.87;;;6.40;99.90;;;;;;4989439;28;20464;-47
2022/10/14 04:50:24;;;;;;;20.03;14.47;;;6.40;99.90;;;;;;4991017;28;20465;-47
2022/10/14 04:52:51;;;;;;;19.03;14.43;;;6.40;99.90;;;;;;4985618;28;20488;-48
2022/10/14 04:55:17;;;;;;;20.10;14.30;;;6.40;99.90;;;;;;4987331;28;20460;-48
2022/10/14 04:57:44;;;;;;;21.13;13.87;;;6.50;99.90;;;;;;4990082;28;20496;-48
2022/10/14 05:00:12;;;;;;;19.77;14.50;;;6.50;99.90;;;;;;4984866;28;20580;-46
2022/10/14 05:02:39;;;;;;;23.30;14.67;;;6.50;99.90;;;;;;4988142;28;20522;-46
2022/10/14 05:05:08;;;;;;;21.30;13.43;;;6.60;99.90;;;;;;4989365;28;20500;-46
2022/10/14 05:07:37;;;;;;;17.80;14.30;;;6.60;99.90;;;;;;4989889;28;20521;-48
2022/10/14 05:10:05;;;;;;;21.87;14.07;;;6.70;99.90;;;;;;4988743;28;20468;-49
2022/10/14 05:12:32;;;;;;;18.80;14.50;;;6.70;99.90;;;;;;4989329;28;20460;-47
2022/10/14 05:14:59;;;;;;;23.60;16.53;;;6.70;99.90;;;;;;4989244;28;20459;-48
2022/10/14 05:17:25;;;;;;;21.17;16.70;;;6.70;99.90;;;;;;4987906;28;20827;-48
2022/10/14 05:19:52;;;;;;;27.23;17.37;;;6.70;99.90;;;;;;4988294;28;21438;-48
2022/10/14 05:22:20;;;;;;;21.30;17.97;;;6.80;99.90;;;;;;4991193;28;20460;-47
2022/10/14 05:24:46;;;;;;;25.03;18.13;;;6.80;99.90;;;;;;4989426;28;20476;-48
2022/10/14 05:27:13;;;;;;;31.33;21.33;;;6.80;99.90;;;;;;4987625;28;20460;-48
2022/10/14 05:29:39;;;;;;;21.57;18.60;;;6.90;99.90;;;;;;4981303;28;20500;-48
2022/10/14 05:32:06;;;;;;;24.37;17.13;;;6.90;99.90;;;;;;4985746;28;20497;-49
2022/10/14 05:34:33;;;;;;;24.87;18.23;;;7.00;99.90;;;;;;4986374;28;20982;-48
2022/10/14 05:37:00;;;;;;;24.10;17.50;;;7.00;99.90;;;;;;4988988;28;20547;-48
2022/10/14 05:39:28;;;;;;;21.20;17.73;;;7.00;99.90;;;;;;4988797;28;20480;-48
2022/10/14 05:41:55;;;;;;;25.67;20.27;;;7.10;99.90;;;;;;4989519;28;20468;-49
2022/10/14 05:44:21;;;;;;;23.20;18.23;;;7.10;99.90;;;;;;4990062;28;20491;-48
2022/10/14 05:46:48;;;;;;;26.80;19.60;;;7.20;99.90;;;;;;4983584;28;20499;-48
2022/10/14 05:49:14;;;;;;;29.53;18.93;;;7.20;99.90;;;;;;4983078;28;20950;-48
2022/10/14 05:51:42;;;;;;;23.13;18.47;;;7.20;99.90;;;;;;4980232;28;20491;-48
2022/10/14 05:54:08;;;;;;;25.20;16.87;;;7.30;99.90;;;;;;4981095;28;20550;-48
2022/10/14 05:56:36;;;;;;;22.33;17.57;;;7.30;99.90;;;;;;4985649;28;20475;-48
2022/10/14 05:59:03;;;;;;;21.43;15.57;;;7.40;99.90;;;;;;4986285;28;21044;-47
2022/10/14 06:01:30;;;;;;;18.60;15.03;;;7.40;99.90;;;;;;4988599;28;20881;-48
2022/10/14 06:03:56;;;;;;;22.60;15.63;;;7.50;99.90;;;;;;4988561;28;20519;-48
2022/10/14 06:06:23;;;;;;;17.13;14.47;;;7.50;99.90;;;;;;4982820;28;20464;-48
2022/10/14 06:08:49;;;;;;;14.57;12.53;;;7.50;99.90;;;;;;4985121;28;20491;-49
2022/10/14 06:11:16;;;;;;;18.60;14.70;;;7.60;99.90;;;;;;4989341;28;20526;-48
2022/10/14 06:13:44;;;;;;;16.77;13.37;;;7.70;99.90;;;;;;4988752;28;20476;-48
2022/10/14 06:16:11;;;;;;;18.80;13.80;;;7.70;99.90;;;;;;4988031;28;20503;-49
2022/10/14 06:18:38;;;;;;;18.43;13.10;;;7.80;99.90;;;;;;4991806;28;20508;-48
2022/10/14 06:21:06;;;;;;;17.73;12.90;;;7.80;1.40;;;;;;4984886;28;20559;-48
2022/10/14 06:23:33;;;;;;;18.40;13.40;;;7.80;1.40;;;;;;4987437;28;20496;-48
2022/10/14 06:26:04;;;;;;;15.47;12.53;;;7.90;99.90;;;;;;4990521;28;20511;-47
2022/10/14 06:28:31;;;;;;;20.33;12.93;;;7.90;99.90;;;;;;4989852;28;20461;-47
2022/10/14 06:30:59;;;;;;;20.00;12.90;;;8.00;99.90;;;;;;4985947;28;20508;-48
2022/10/14 06:33:28;;;;;;;17.23;13.77;;;8.00;99.90;;;;;;4991373;28;20476;-47
2022/10/14 06:35:55;;;;;;;16.73;13.20;;;8.10;99.90;;;;;;4986397;28;20468;-47
2022/10/14 06:38:21;;;;;;;17.20;14.10;;;8.20;99.90;;;;;;4987641;28;21164;-49
2022/10/14 06:40:50;;;;;;;18.07;12.63;;;8.20;99.90;;;;;;4983942;28;20492;-48
2022/10/14 06:43:16;;;;;;;19.67;13.43;;;8.30;99.90;;;;;;4985477;28;20530;-48
2022/10/14 06:45:43;;;;;;;19.27;14.30;;;8.30;99.90;;;;;;4982765;28;20460;-48
2022/10/14 06:48:11;;;;;;;15.67;13.23;;;8.40;99.90;;;;;;4982916;28;20588;-48
2022/10/14 06:50:38;;;;;;;15.07;13.10;;;8.50;99.90;;;;;;4983565;28;20460;-49
2022/10/14 06:53:05;;;;;;;18.53;12.87;;;8.50;99.90;;;;;;4985244;28;20489;-49
2022/10/14 06:55:31;;;;;;;19.97;14.17;;;8.60;99.90;;;;;;4977580;28;20472;-49
2022/10/14 06:57:58;;;;;;;17.87;13.07;;;8.60;99.90;;;;;;4984457;28;20997;-49
2022/10/14 07:00:24;;;;;;;25.13;14.90;;;8.70;99.90;;;;;;4982891;28;20551;-49
2022/10/14 07:02:51;;;;;;;21.87;14.23;;;8.70;99.90;;;;;;4982093;28;20542;-48
2022/10/14 07:05:19;;;;;;;20.50;14.40;;;8.80;99.90;;;;;;4986032;28;20928;-48
2022/10/14 07:07:46;;;;;;;26.60;18.20;;;8.90;99.90;;;;;;4987619;28;20871;-48
2022/10/14 07:10:12;;;;;;;23.10;16.27;;;8.90;99.90;;;;;;4982023;28;21417;-48
2022/10/14 07:12:39;;;;;;;22.03;17.10;;;9.00;99.90;;;;;;4980495;28;20452;-48
2022/10/14 07:15:06;;;;;;;23.03;15.90;;;9.00;99.90;;;;;;4983182;28;20538;-48
2022/10/14 07:17:33;;;;;;;23.03;16.83;;;9.10;99.90;;;;;;4977964;28;20457;-49
2022/10/14 07:20:00;;;;;;;20.27;16.17;;;9.10;99.90;;;;;;4983578;28;20888;-47
2022/10/14 07:22:27;;;;;;;24.60;16.93;;;9.20;99.90;;;;;;4987831;28;20460;-48
2022/10/14 07:24:54;;;;;;;32.43;17.40;;;9.30;99.90;;;;;;4984219;28;20547;-48
2022/10/14 07:27:21;;;;;;;19.97;16.60;;;9.30;99.90;;;;;;4990916;28;20490;-47
2022/10/14 07:29:47;;;;;;;27.10;17.00;;;9.40;99.90;;;;;;4988057;28;20468;-45
2022/10/14 07:32:14;;;;;;;22.40;17.03;;;9.50;99.90;;;;;;4986429;28;21016;-49
2022/10/14 07:34:41;;;;;;;33.37;18.77;;;9.50;99.90;;;;;;4991299;28;20849;-51
2022/10/14 07:37:07;;;;;;;28.00;18.03;;;9.60;99.90;;;;;;4979968;28;20496;-51
2022/10/14 07:39:35;;;;;;;24.43;16.10;;;9.70;99.90;;;;;;4983762;28;20512;-51
2022/10/14 07:42:02;;;;;;;26.00;17.60;;;9.80;99.90;;;;;;4984100;28;20500;-52
2022/10/14 07:44:28;;;;;;;28.57;18.60;;;9.80;99.90;;;;;;4985811;28;20568;-50
2022/10/14 07:46:55;;;;;;;24.63;16.80;;;9.90;99.90;;;;;;4980856;28;21005;-50
2022/10/14 07:49:22;;;;;;;25.87;15.97;;;10.00;99.90;;;;;;4983629;28;20488;-52
2022/10/14 07:51:49;;;;;;;23.53;16.10;;;10.00;99.90;;;;;;4987155;28;20511;-51
2022/10/14 07:54:18;;;;;;;20.43;16.70;;;10.10;99.90;;;;;;4988275;28;20515;-51
2022/10/14 07:56:48;;;;;;;24.60;16.50;;;10.10;99.90;;;;;;4983964;28;20845;-51
2022/10/14 07:59:14;;;;;;;21.40;16.63;;;10.20;99.90;;;;;;4985762;28;20554;-50
2022/10/14 08:01:41;;;;;;;26.03;16.87;;;10.20;99.90;;;;;;4986666;28;20542;-51
2022/10/14 08:04:09;;;;;;;25.03;15.77;;;10.30;99.90;;;;;;4989301;28;20484;-51
2022/10/14 08:06:36;;;;;;;26.40;17.17;;;10.40;99.90;;;;;;4990085;28;20465;-51
2022/10/14 08:09:05;;;;;;;28.30;16.20;;;10.40;99.90;;;;;;4991811;28;21021;-51
2022/10/14 08:11:31;;;;;;;20.90;16.13;;;10.50;99.90;;;;;;4982978;28;20472;-51
2022/10/14 08:14:00;;;;;;;31.13;16.13;;;10.50;99.90;;;;;;4984416;28;20492;-51
2022/10/14 08:16:28;;;;;;;28.10;16.80;;;10.60;99.90;;;;;;4987627;28;20468;-51
2022/10/14 08:18:56;;;;;;;21.70;15.50;;;10.60;99.90;;;;;;5004706;28;20475;-50
2022/10/14 08:21:23;;;;;;;19.47;15.43;;;10.70;99.90;;;;;;4997270;28;20958;-52
2022/10/14 08:23:50;;;;;;;20.57;15.30;;;10.80;99.90;;;;;;4990175;28;20491;-51
2022/10/14 08:26:22;;;;;;;26.87;17.33;;;10.90;99.90;;;;;;4984161;28;20469;-51
2022/10/14 08:28:50;;;;;;;33.67;16.00;;;11.00;99.90;;;;;;4991353;28;20464;-52
2022/10/14 08:31:18;;;;;;;20.30;15.97;;;11.20;99.90;;;;;;4986847;28;20527;-51
2022/10/14 08:33:45;;;;;;;24.90;15.60;;;11.30;99.90;;;;;;4989890;28;20559;-51
2022/10/14 08:36:12;;;;;;;22.50;17.03;;;11.50;99.90;;;;;;4987377;28;20461;-50
2022/10/14 08:38:39;;;;;;;26.93;15.60;;;11.70;99.90;;;;;;4991888;28;20524;-50
2022/10/14 08:41:16;;;;;;;20.50;15.37;;;11.90;99.90;;;;;;4987001;28;20527;-50
2022/10/14 08:43:49;;;;;;;24.97;16.23;;;12.10;99.90;;;;;;4989657;28;20484;-50
2022/10/14 08:46:24;;;;;;;21.27;14.70;;;12.30;99.90;;;;;;4990591;28;21056;-50
2022/10/14 08:48:55;;;;;;;26.93;16.77;;;12.60;99.90;;;;;;4983055;28;20467;-50
2022/10/14 08:51:22;;;;;;;23.93;16.00;;;12.80;90.20;;;;;;4981216;28;20464;-50
2022/10/14 08:53:54;;;;;;;23.00;16.57;;;13.20;56.00;;;;;;4986674;28;20488;-51
2022/10/14 08:56:24;;;;;;;24.10;16.83;;;13.50;56.80;;;;;;4987934;28;20465;-50
2022/10/14 08:58:53;;;;;;;22.27;16.43;;;13.50;83.30;;;;;;4993695;28;21101;-50
2022/10/14 09:01:26;;;;;;;30.43;15.70;;;13.50;89.80;;;;;;4980258;28;20943;-50
2022/10/14 09:03:58;;;;;;;23.10;15.03;;;13.40;94.20;;;;;;4989160;28;20484;-50
2022/10/14 09:06:27;;;;;;;22.00;15.90;;;13.30;93.20;;;;;;4990292;28;20497;-50
2022/10/14 09:08:57;;;;;;;23.80;15.40;;;13.30;90.00;;;;;;4987651;28;20453;-50
2022/10/14 09:11:24;;;;;;;25.87;16.10;;;13.30;84.40;;;;;;4986749;28;20515;-49
2022/10/14 09:13:54;;;;;;;23.10;14.70;;;13.30;80.50;;;;;;4986371;28;20480;-50
2022/10/14 09:16:23;;;;;;;25.47;16.37;;;13.30;78.30;;;;;;4983320;28;20456;-50
2022/10/14 09:18:53;;;;;;;19.30;14.47;;;13.30;77.40;;;;;;4987902;28;21056;-50
2022/10/14 09:21:26;;;;;;;22.50;14.23;;;13.40;77.30;;;;;;4984428;28;20456;-50
2022/10/14 09:23:58;;;;;;;22.30;15.03;;;13.50;75.80;;;;;;4997402;22;21209;-49
2022/10/14 09:26:30;;;;;;;23.90;16.10;;;13.50;74.40;;;;;;4986543;28;20489;-50
2022/10/14 09:28:56;;;;;;;21.33;15.30;;;13.60;74.30;;;;;;4995167;28;20888;-50
2022/10/14 09:31:23;;;;;;;23.97;15.53;;;13.60;76.10;;;;;;4989943;28;20492;-49
2022/10/14 09:33:51;;;;;;;26.90;15.90;;;13.70;76.30;;;;;;4992452;28;20464;-49
2022/10/14 09:36:20;;;;;;;21.80;15.20;;;13.80;80.60;;;;;;4980681;28;20488;-49
2022/10/14 09:38:50;;;;;;;17.10;14.70;;;13.90;88.70;;;;;;4987917;28;20497;-50
2022/10/14 09:41:18;;;;;;;23.67;13.60;;;13.90;88.40;;;;;;4986046;28;20560;-50
2022/10/14 09:44:17;;;;;;;26.80;14.20;;;13.90;89.40;;;;;;4983609;28;20468;-50
2022/10/14 09:46:47;;;;;;;16.40;12.40;;;13.90;90.40;;;;;;4987497;28;20452;-50
2022/10/14 09:49:18;;;;;;;19.50;13.00;;;14.00;99.90;;;;;;4989490;28;20448;-50
2022/10/14 09:51:45;;;;;;;19.40;14.13;;;14.00;99.90;;;;;;4991549;28;20531;-49
2022/10/14 09:54:22;;;;;;;19.17;12.83;;;14.10;99.90;;;;;;4993624;28;20484;-48
2022/10/14 09:56:49;;;;;;;24.23;14.00;;;14.20;99.90;;;;;;4991739;28;20495;-49
2022/10/14 09:59:18;;;;;;;22.27;13.40;;;14.30;99.90;;;;;;4989269;28;20570;-49
2022/10/14 10:01:51;;;;;;;18.63;13.67;;;14.40;99.90;;;;;;4984940;28;20861;-49
2022/10/14 10:04:32;;;;;;;30.13;13.73;;;14.50;99.90;;;;;;4990046;28;21075;-50
2022/10/14 10:07:00;;;;;;;20.90;13.63;;;14.50;99.90;;;;;;4987776;28;20522;-49
2022/10/14 10:09:27;;;;;;;19.20;12.43;;;14.70;99.90;;;;;;4987823;28;20573;-49
2022/10/14 10:11:54;;;;;;;18.90;13.37;;;14.70;99.90;;;;;;4988150;28;20464;-49
2022/10/14 10:14:23;;;;;;;19.30;12.23;;;14.90;99.90;;;;;;4988983;28;20488;-49
2022/10/14 10:16:51;;;;;;;22.43;13.80;;;15.00;99.90;;;;;;4991091;28;20954;-50
2022/10/14 10:19:27;;;;;;;21.47;13.50;;;15.20;99.90;;;;;;4989085;28;20906;-50
2022/10/14 10:21:54;;;;;;;20.10;10.97;;;15.20;99.90;;;;;;4987313;28;20471;-50
2022/10/14 10:24:23;;;;;;;18.40;10.63;;;15.30;99.90;;;;;;4987643;28;20484;-50
2022/10/14 10:26:50;;;;;;;19.13;10.90;;;15.30;99.90;;;;;;4981347;28;20934;-50
2022/10/14 10:29:27;;;;;;;18.57;11.13;;;15.40;99.90;;;;;;4989244;28;20951;-50
2022/10/14 10:32:11;;;;;;;16.60;9.87;;;15.50;99.90;;;;;;4989065;28;20543;-50
2022/10/14 10:34:56;;;;;;;12.90;9.17;;;15.70;99.90;;;;;;4988261;28;20508;-50
2022/10/14 10:37:28;;;;;;;16.43;10.20;;;15.70;99.90;;;;;;4989246;28;20465;-50
2022/10/14 10:40:10;;;;;;;57.60;28.97;;;15.70;99.90;;;;;;4986163;28;20491;-50
2022/10/14 10:42:48;;;;;;;196.13;98.93;;;15.60;99.90;;;;;;4989387;28;20460;-51
2022/10/14 10:45:20;;;;;;;51.73;27.73;;;15.60;99.90;;;;;;4986223;28;20518;-50
2022/10/14 10:47:54;;;;;;;62.90;30.93;;;15.60;99.90;;;;;;4990939;28;20507;-50
2022/10/14 10:50:31;;;;;;;30.23;16.07;;;15.60;99.90;;;;;;4989566;28;20461;-50
2022/10/14 10:53:13;;;;;;;110.67;56.50;;;15.60;99.90;;;;;;4984653;28;20984;-50
2022/10/14 10:55:53;;;;;;;55.73;29.47;;;15.60;99.90;;;;;;4988148;28;20539;-51
2022/10/14 10:58:34;;;;;;;62.90;30.90;;;15.60;99.90;;;;;;4991644;28;20890;-51
2022/10/14 11:01:09;;;;;;;19.57;12.90;;;15.60;99.90;;;;;;4986578;28;20535;-51
2022/10/14 11:03:49;;;;;;;16.70;10.37;;;15.60;99.90;;;;;;4984318;28;20460;-51
2022/10/14 11:12:05;;;;;;;18.50;12.67;;;15.70;99.90;;;;;;4993796;28;20491;-51
2022/10/14 11:14:49;;;;;;;19.53;12.77;;;15.70;99.90;;;;;;4988365;28;20852;-50
2022/10/14 11:17:23;;;;;;;15.70;9.40;;;15.70;99.90;;;;;;4975699;28;20520;-50
2022/10/14 11:19:57;;;;;;;19.90;9.80;;;15.70;99.90;;;;;;4987379;28;20515;-51
2022/10/14 11:22:47;;;;;;;14.00;11.33;;;15.70;99.90;;;;;;4989001;28;20490;-51
2022/10/14 11:25:23;;;;;;;12.57;9.57;;;15.70;99.90;;;;;;4985056;28;20488;-49
2022/10/14 11:27:59;;;;;;;14.87;9.70;;;15.80;99.90;;;;;;4990124;28;20463;-49
2022/10/14 11:30:37;;;;;;;17.67;10.40;;;16.00;99.90;;;;;;4982955;28;20958;-49
2022/10/14 11:33:18;;;;;;;21.00;9.90;;;16.10;99.90;;;;;;4991348;28;20469;-49
2022/10/14 11:35:53;;;;;;;15.87;9.57;;;16.20;99.90;;;;;;4984096;28;20619;-49
2022/10/14 11:38:35;;;;;;;13.60;10.80;;;16.20;99.90;;;;;;4990618;28;20889;-49
2022/10/14 11:41:09;;;;;;;12.47;10.33;;;16.20;99.90;;;;;;4985594;28;20473;-49
2022/10/14 11:43:43;;;;;;;17.30;10.03;;;16.20;99.90;;;;;;4982681;28;20605;-49
2022/10/14 11:46:13;;;;;;;16.70;9.97;;;16.20;99.90;;;;;;4987057;28;20950;-50
2022/10/14 11:48:45;;;;;;;22.93;10.37;;;16.20;99.90;;;;;;4990685;28;20465;-49
2022/10/14 11:51:19;;;;;;;16.40;9.83;;;16.30;99.90;;;;;;4987486;28;20465;-49
2022/10/14 11:53:57;;;;;;;25.07;10.63;;;16.30;99.90;;;;;;4987699;28;20473;-50
2022/10/14 11:56:32;;;;;;;30.73;9.50;;;16.50;99.90;;;;;;4987750;28;21902;-49
2022/10/14 11:59:03;;;;;;;13.43;8.90;;;16.60;99.90;;;;;;4977362;28;20511;-50
2022/10/14 12:01:32;;;;;;;12.40;8.60;;;16.80;99.90;;;;;;4969408;28;20496;-50
2022/10/14 12:04:04;;;;;;;12.97;9.40;;;16.80;99.90;;;;;;4989120;28;20488;-50
2022/10/14 12:06:36;;;;;;;15.30;8.30;;;16.70;99.90;;;;;;4988278;28;20864;-49
2022/10/14 12:09:10;;;;;;;12.07;8.23;;;16.70;99.90;;;;;;4990466;28;20476;-49
2022/10/14 12:11:41;;;;;;;14.83;8.57;;;16.60;99.90;;;;;;4985646;28;20510;-50
2022/10/14 12:14:13;;;;;;;9.97;7.70;;;16.90;99.90;;;;;;4988557;28;21028;-49
2022/10/14 12:16:43;;;;;;;12.10;7.37;;;16.80;99.90;;;;;;4991812;28;20456;-49
2022/10/14 12:19:12;;;;;;;14.30;7.53;;;16.70;99.90;;;;;;4986925;28;20464;-51
2022/10/14 12:21:47;;;;;;;12.10;8.33;;;16.60;99.90;;;;;;4991198;28;20535;-51
2022/10/14 12:24:18;;;;;;;12.13;8.87;;;16.50;99.90;;;;;;4988971;28;20500;-49
2022/10/14 12:26:54;;;;;;;12.10;8.10;;;16.40;99.90;;;;;;4987039;28;20512;-51
2022/10/14 12:29:23;;;;;;;8.77;7.80;;;16.40;99.90;;;;;;4991479;28;20464;-51
2022/10/14 12:32:05;;;;;;;12.50;8.67;;;16.50;99.90;;;;;;4987810;28;20550;-50
2022/10/14 12:34:35;;;;;;;12.97;8.20;;;16.50;99.90;;;;;;4992508;28;20564;-51
2022/10/14 12:37:49;;;;;;;13.33;9.70;;;16.40;99.90;;;;;;4991789;28;20468;-50
2022/10/14 12:40:31;;;;;;;13.27;9.53;;;16.40;99.90;;;;;;4989768;28;20511;-49
2022/10/14 12:43:13;;;;;;;14.37;9.57;;;16.30;99.90;;;;;;4977886;28;20539;-49
2022/10/14 12:45:49;;;;;;;11.80;9.33;;;16.20;99.90;;;;;;4989529;28;20480;-49
2022/10/14 12:48:20;;;;;;;19.30;8.90;;;16.10;99.90;;;;;;4988088;28;21017;-49
2022/10/14 12:50:48;;;;;;;14.10;10.87;;;16.10;99.90;;;;;;4991381;28;20460;-50
2022/10/14 12:53:21;;;;;;;11.93;9.33;;;16.00;99.90;;;;;;4990524;28;20514;-49